Salten — LMFM — position and weather

sailwx.info

Track history (hours):
 
Tides and Currents Weather Stations Pressure Air Temp Water Temp Dewpoint Dewpoint Depression Visibility Wind Speed Wind Dir Waves Ship Positions

Salten

Last reported at 2014-Nov-24 16:33 UTC. Time now 2014-Nov-24 18:02 UTC.
Position N 67°24' E 014°30'.

Length 41 m; draft 1.5 m.

Type: High speed craft. MMSI: 259387000.

Date/timePositionNaut miles runAvg speedWind from/ knotsBaromVisibWave heightAir tempDewpointWater temp
2014-Nov-24 16:33N 67°24' E 014°30'7 7.2
2014-Nov-24 15:32N 67°17' E 014°22'0 0.0
2014-Nov-24 14:33N 67°17' E 014°22'0 0.0
2014-Nov-24 13:33N 67°17' E 014°22'0 0.0
2014-Nov-24 12:33N 67°17' E 014°22'0 0.0
2014-Nov-24 11:33N 67°17' E 014°22'0 0.0
2014-Nov-24 10:33N 67°17' E 014°22'0 0.0
2014-Nov-24 09:33N 67°17' E 014°22'9 9.1
2014-Nov-24 08:33N 67°25' E 014°32'11 0.9
2014-Nov-23 20:10N 67°36' E 014°42'1931.2
2014-Nov-23 19:34N 67°18' E 014°23'1 1.1
2014-Nov-23 18:34N 67°17' E 014°22'7 0.3
2014-Nov-22 16:33N 67°24' E 014°30'7 7.1
2014-Nov-22 15:33N 67°17' E 014°22'0 0.0
2014-Nov-22 14:33N 67°17' E 014°22'0 0.0
2014-Nov-22 13:33N 67°17' E 014°22'0 0.0
2014-Nov-22 12:33N 67°17' E 014°22'1 0.6
2014-Nov-22 11:33N 67°17' E 014°24'6014.0
2014-Nov-22 07:17N 66°28' E 012°57'8 0.6
2014-Nov-21 19:29N 66°21' E 012°51'5413.6
2014-Nov-21 15:31N 67°08' E 013°58'1313.5
2014-Nov-21 14:33N 67°17' E 014°22'0 0.1
2014-Nov-21 13:33N 67°17' E 014°22'0 0.0
2014-Nov-21 12:33N 67°17' E 014°22'0 0.0
2014-Nov-21 11:33N 67°17' E 014°22'6014.0
2014-Nov-21 07:14N 66°28' E 012°54'6 0.5
2014-Nov-20 19:32N 66°23' E 012°48'5413.4
2014-Nov-20 15:33N 67°07' E 014°03'1312.9
2014-Nov-20 14:33N 67°17' E 014°23'1 0.6
2014-Nov-20 13:33N 67°17' E 014°22'0 0.0
2014-Nov-20 12:32N 67°17' E 014°22'0 0.0
2014-Nov-20 11:33N 67°17' E 014°22'5 4.9
2014-Nov-20 10:33N 67°14' E 014°13'5416.9
2014-Nov-20 07:21N 66°29' E 012°57'7 0.6
2014-Nov-19 19:20N 66°22' E 012°49'5514.1
2014-Nov-19 15:25N 67°10' E 014°02'1112.5
2014-Nov-19 14:33N 67°17' E 014°22'0 0.0
2014-Nov-19 13:33N 67°17' E 014°22'0 0.0
2014-Nov-19 12:33N 67°17' E 014°22'0 0.0
2014-Nov-19 11:33N 67°17' E 014°22'0 0.0
2014-Nov-19 10:33N 67°17' E 014°22'0 0.0
2014-Nov-19 09:33N 67°17' E 014°22'9 9.3
2014-Nov-19 08:33N 67°26' E 014°27'1 0.1
2014-Nov-18 16:33N 67°25' E 014°27'8 7.8
2014-Nov-18 15:33N 67°17' E 014°22'0 0.0
2014-Nov-18 14:33N 67°17' E 014°22'0 0.0
2014-Nov-18 13:33N 67°17' E 014°22'0 0.0
2014-Nov-18 12:33N 67°17' E 014°22'0 0.0
2014-Nov-18 11:33N 67°17' E 014°22'5714.0
2014-Nov-18 07:31N 66°31' E 013°00'10 0.8
2014-Nov-17 19:32N 66°21' E 012°56'5213.0
2014-Nov-17 15:31N 67°07' E 013°59'1414.2
2014-Nov-17 14:33N 67°17' E 014°23'0 0.1
2014-Nov-17 13:33N 67°17' E 014°22'0 0.0
2014-Nov-17 12:33N 67°17' E 014°22'0 0.0
2014-Nov-17 11:33N 67°17' E 014°22'1010.0
2014-Nov-17 10:31N 67°10' E 014°03'4715.6
2014-Nov-17 07:32N 66°31' E 012°60'10 0.7
2014-Nov-16 16:13N 66°21' E 012°51'5414.5
2014-Nov-16 12:29N 67°08' E 013°60'1313.6
2014-Nov-16 11:33N 67°17' E 014°22'0 0.0
2014-Nov-16 10:33N 67°17' E 014°22'0 0.0
2014-Nov-16 09:33N 67°17' E 014°22'0 0.0
2014-Nov-16 08:33N 67°17' E 014°22'0 0.0
2014-Nov-16 07:33N 67°17' E 014°22'0 0.0
2014-Nov-16 06:33N 67°17' E 014°22'0 0.0
2014-Nov-16 05:33N 67°17' E 014°22'0 0.0
2014-Nov-16 04:33N 67°17' E 014°22'0 0.0
2014-Nov-16 03:33N 67°17' E 014°22'0 0.0
2014-Nov-16 02:33N 67°17' E 014°22'0 0.0
2014-Nov-16 01:33N 67°17' E 014°22'0 0.0
2014-Nov-16 00:33N 67°17' E 014°22'0 0.0
2014-Nov-15 23:33N 67°17' E 014°22'0 0.0
2014-Nov-15 22:33N 67°17' E 014°22'0 0.0
2014-Nov-15 21:33N 67°17' E 014°22'0 0.0
2014-Nov-15 20:33N 67°17' E 014°22'0 0.0
2014-Nov-15 19:33N 67°17' E 014°22'0 0.0
2014-Nov-15 18:33N 67°17' E 014°22'0 0.0
2014-Nov-15 17:32N 67°17' E 014°22'0 0.0
2014-Nov-15 16:32N 67°17' E 014°22'0 0.0
2014-Nov-15 15:32N 67°17' E 014°22'0 0.0
2014-Nov-15 14:33N 67°17' E 014°22'0 0.0
2014-Nov-15 13:33N 67°17' E 014°22'0 0.0
2014-Nov-15 12:33N 67°17' E 014°22'0 0.0
2014-Nov-15 11:32N 67°17' E 014°22'0 0.0
2014-Nov-15 10:33N 67°17' E 014°22'1 0.6
2014-Nov-15 09:33N 67°17' E 014°24'13 0.8
2014-Nov-14 17:32N 67°29' E 014°37'  
Track history (hours):
 
Tides and Currents Weather Stations Pressure Air Temp Water Temp Dewpoint Dewpoint Depression Visibility Wind Speed Wind Dir Waves Ship Positions

Salten

Last reported at 2014-Nov-24 16:33 UTC. Time now 2014-Nov-24 18:02 UTC.
Position N 67°24' E 014°30'.

Length 41 m; draft 1.5 m.

Type: High speed craft. MMSI: 259387000.

Date/timePositionNaut miles runAvg speedWind from/ knotsBaromVisibWave heightAir tempDewpointWater temp
2014-Nov-24 16:33N 67°24' E 014°30'7 7.2
2014-Nov-24 15:32N 67°17' E 014°22'0 0.0
2014-Nov-24 14:33N 67°17' E 014°22'0 0.0
2014-Nov-24 13:33N 67°17' E 014°22'0 0.0
2014-Nov-24 12:33N 67°17' E 014°22'0 0.0
2014-Nov-24 11:33N 67°17' E 014°22'0 0.0
2014-Nov-24 10:33N 67°17' E 014°22'0 0.0
2014-Nov-24 09:33N 67°17' E 014°22'9 9.1
2014-Nov-24 08:33N 67°25' E 014°32'11 0.9
2014-Nov-23 20:10N 67°36' E 014°42'1931.2
2014-Nov-23 19:34N 67°18' E 014°23'1 1.1
2014-Nov-23 18:34N 67°17' E 014°22'7 0.3
2014-Nov-22 16:33N 67°24' E 014°30'7 7.1
2014-Nov-22 15:33N 67°17' E 014°22'0 0.0
2014-Nov-22 14:33N 67°17' E 014°22'0 0.0
2014-Nov-22 13:33N 67°17' E 014°22'0 0.0
2014-Nov-22 12:33N 67°17' E 014°22'1 0.6
2014-Nov-22 11:33N 67°17' E 014°24'6014.0
2014-Nov-22 07:17N 66°28' E 012°57'8 0.6
2014-Nov-21 19:29N 66°21' E 012°51'5413.6
2014-Nov-21 15:31N 67°08' E 013°58'1313.5
2014-Nov-21 14:33N 67°17' E 014°22'0 0.1
2014-Nov-21 13:33N 67°17' E 014°22'0 0.0
2014-Nov-21 12:33N 67°17' E 014°22'0 0.0
2014-Nov-21 11:33N 67°17' E 014°22'6014.0
2014-Nov-21 07:14N 66°28' E 012°54'6 0.5
2014-Nov-20 19:32N 66°23' E 012°48'5413.4
2014-Nov-20 15:33N 67°07' E 014°03'1312.9
2014-Nov-20 14:33N 67°17' E 014°23'1 0.6
2014-Nov-20 13:33N 67°17' E 014°22'0 0.0
2014-Nov-20 12:32N 67°17' E 014°22'0 0.0
2014-Nov-20 11:33N 67°17' E 014°22'5 4.9
2014-Nov-20 10:33N 67°14' E 014°13'5416.9
2014-Nov-20 07:21N 66°29' E 012°57'7 0.6
2014-Nov-19 19:20N 66°22' E 012°49'5514.1
2014-Nov-19 15:25N 67°10' E 014°02'1112.5
2014-Nov-19 14:33N 67°17' E 014°22'0 0.0
2014-Nov-19 13:33N 67°17' E 014°22'0 0.0
2014-Nov-19 12:33N 67°17' E 014°22'0 0.0
2014-Nov-19 11:33N 67°17' E 014°22'0 0.0
2014-Nov-19 10:33N 67°17' E 014°22'0 0.0
2014-Nov-19 09:33N 67°17' E 014°22'9 9.3
2014-Nov-19 08:33N 67°26' E 014°27'1 0.1
2014-Nov-18 16:33N 67°25' E 014°27'8 7.8
2014-Nov-18 15:33N 67°17' E 014°22'0 0.0
2014-Nov-18 14:33N 67°17' E 014°22'0 0.0
2014-Nov-18 13:33N 67°17' E 014°22'0 0.0
2014-Nov-18 12:33N 67°17' E 014°22'0 0.0
2014-Nov-18 11:33N 67°17' E 014°22'5714.0
2014-Nov-18 07:31N 66°31' E 013°00'10 0.8
2014-Nov-17 19:32N 66°21' E 012°56'5213.0
2014-Nov-17 15:31N 67°07' E 013°59'1414.2
2014-Nov-17 14:33N 67°17' E 014°23'0 0.1
2014-Nov-17 13:33N 67°17' E 014°22'0 0.0
2014-Nov-17 12:33N 67°17' E 014°22'0 0.0
2014-Nov-17 11:33N 67°17' E 014°22'1010.0
2014-Nov-17 10:31N 67°10' E 014°03'4715.6
2014-Nov-17 07:32N 66°31' E 012°60'10 0.7
2014-Nov-16 16:13N 66°21' E 012°51'5414.5
2014-Nov-16 12:29N 67°08' E 013°60'1313.6
2014-Nov-16 11:33N 67°17' E 014°22'0 0.0
2014-Nov-16 10:33N 67°17' E 014°22'0 0.0
2014-Nov-16 09:33N 67°17' E 014°22'0 0.0
2014-Nov-16 08:33N 67°17' E 014°22'0 0.0
2014-Nov-16 07:33N 67°17' E 014°22'0 0.0
2014-Nov-16 06:33N 67°17' E 014°22'0 0.0
2014-Nov-16 05:33N 67°17' E 014°22'0 0.0
2014-Nov-16 04:33N 67°17' E 014°22'0 0.0
2014-Nov-16 03:33N 67°17' E 014°22'0 0.0
2014-Nov-16 02:33N 67°17' E 014°22'0 0.0
2014-Nov-16 01:33N 67°17' E 014°22'0 0.0
2014-Nov-16 00:33N 67°17' E 014°22'0 0.0
2014-Nov-15 23:33N 67°17' E 014°22'0 0.0
2014-Nov-15 22:33N 67°17' E 014°22'0 0.0
2014-Nov-15 21:33N 67°17' E 014°22'0 0.0
2014-Nov-15 20:33N 67°17' E 014°22'0 0.0
2014-Nov-15 19:33N 67°17' E 014°22'0 0.0
2014-Nov-15 18:33N 67°17' E 014°22'0 0.0
2014-Nov-15 17:32N 67°17' E 014°22'0 0.0
2014-Nov-15 16:32N 67°17' E 014°22'0 0.0
2014-Nov-15 15:32N 67°17' E 014°22'0 0.0
2014-Nov-15 14:33N 67°17' E 014°22'0 0.0
2014-Nov-15 13:33N 67°17' E 014°22'0 0.0
2014-Nov-15 12:33N 67°17' E 014°22'0 0.0
2014-Nov-15 11:32N 67°17' E 014°22'0 0.0
2014-Nov-15 10:33N 67°17' E 014°22'1 0.6
2014-Nov-15 09:33N 67°17' E 014°24'13 0.8
2014-Nov-14 17:32N 67°29' E 014°37'  

Dump ship's entire track history